Clairemont, Texas
Current Conditions -  °F | °C
As of 6:15 PM on Tuesday 25 Nov 2014 (Local Time) from KSNK Reporting Station
Clear Clear  
Wind Chill: 45°   Ceiling: Unl
Heat Index: 49°   Visibility: 10mi
Dew Point: 22°   Wind: 12mph
Humidity: 34%   Direction: 230°SW
Pressure: 30.15"   Gusts: NA
Location:  33.0123°N, 100.833°W
Report Text: KSNK 260015Z AUTO 23010KT 10SM CLR 10/M05 A3015 RMK AO2 T00961055
Loading
Personal Weather Stations






























Interactive Weather Map New forecast layout! Learn more

10-Day Weather Forecast

Advertisements
Track Severe Weather on mobile